Terminal Aerodrome Forecast
Issued by NWS Atlanta, GA

Home | Current Version | Previous Version | Text Only | Print | Product List | Glossary On
Versions: 1 2 3 4 5 6 7 8 9 10 11 12 13 14 15 16 17 18 19 20 21 22 23 24 25
000
FTUS42 KFFC 240745 AAA
TAFCSG
TAF AMD
KCSG 240745Z 2408/2506 21007KT P6SM OVC008
      TEMPO 2409/2412 4SM BR OVC006
     FM241400 24010G17KT P6SM BKN015 OVC030
     FM241700 26011G20KT P6SM BKN035
     FM242000 29009KT P6SM SCT050=

USA.gov is the U.S. government's official web portal to all federal, state and local government web resources and services.